createdAt,value
2018-12-08T00:00:57.160Z,8.76
2018-12-08T00:03:58.699Z,8.83
2018-12-08T00:07:00.118Z,8.88
2018-12-08T00:10:01.567Z,8.99
2018-12-08T00:13:03.005Z,9.07
2018-12-08T00:16:04.323Z,9.15
2018-12-08T00:19:05.658Z,9.17
2018-12-08T00:22:07.108Z,9.20
2018-12-08T00:25:08.548Z,9.23
2018-12-08T00:28:10.077Z,9.31
2018-12-08T00:31:23.908Z,9.38
2018-12-08T00:34:25.359Z,9.39
2018-12-08T00:37:26.879Z,9.34
2018-12-08T00:40:28.537Z,9.28
2018-12-08T00:43:29.950Z,9.21
2018-12-08T00:46:31.400Z,9.11
2018-12-08T00:49:32.835Z,9.04
2018-12-08T00:52:34.368Z,8.98
2018-12-08T00:55:35.806Z,8.99
2018-12-08T00:58:37.446Z,9.01
2018-12-08T01:01:38.890Z,9.09
2018-12-08T01:04:40.322Z,9.13
2018-12-08T01:07:41.651Z,9.09
2018-12-08T01:10:43.217Z,9.02
2018-12-08T01:13:44.731Z,8.95
2018-12-08T01:16:46.167Z,9.07
2018-12-08T01:19:47.612Z,9.16
2018-12-08T01:22:48.955Z,9.19
2018-12-08T01:25:50.490Z,9.21
2018-12-08T01:28:52.031Z,9.22
2018-12-08T01:31:53.461Z,9.21
2018-12-08T01:34:55.006Z,9.19
2018-12-08T01:37:56.550Z,9.16
2018-12-08T01:40:57.998Z,9.14
2018-12-08T01:43:59.732Z,9.11
2018-12-08T01:47:01.163Z,9.05
2018-12-08T01:50:03.314Z,9.03
2018-12-08T01:53:04.761Z,8.98
2018-12-08T01:56:06.189Z,8.91
2018-12-08T01:59:07.527Z,8.94
2018-12-08T02:02:09.069Z,8.98
2018-12-08T02:05:10.508Z,9.01
2018-12-08T02:08:12.047Z,9.01
2018-12-08T02:11:13.481Z,9.05
2018-12-08T02:14:14.851Z,9.11
2018-12-08T02:17:16.350Z,9.13
2018-12-08T02:20:17.899Z,9.12
2018-12-08T02:23:19.227Z,9.10
2018-12-08T02:26:20.773Z,9.12
2018-12-08T02:29:22.223Z,9.12
2018-12-08T02:32:23.769Z,9.12
2018-12-08T02:35:25.293Z,9.13
2018-12-08T02:38:26.828Z,9.13
2018-12-08T02:41:28.249Z,9.16
2018-12-08T02:44:29.584Z,9.20
2018-12-08T02:47:31.030Z,9.23
2018-12-08T02:50:32.572Z,9.24
2018-12-08T02:53:34.216Z,9.30
2018-12-08T02:56:35.658Z,9.35
2018-12-08T02:59:37.198Z,9.33
2018-12-08T03:02:38.737Z,9.34
2018-12-08T03:05:40.269Z,9.35
2018-12-08T03:08:41.817Z,9.35
2018-12-08T03:11:43.240Z,9.36
2018-12-08T03:14:44.680Z,9.39
2018-12-08T03:17:46.009Z,9.40
2018-12-08T03:20:47.575Z,9.43
2018-12-08T03:23:49.096Z,9.45
2018-12-08T03:26:50.420Z,9.45
2018-12-08T03:29:51.867Z,9.45
2018-12-08T03:32:53.311Z,9.44
2018-12-08T03:35:54.865Z,9.43
2018-12-08T03:38:56.385Z,9.27
2018-12-08T03:41:57.817Z,9.14
2018-12-08T03:44:59.145Z,8.93
2018-12-08T06:15:00.604Z,15.47
2018-12-08T06:18:02.240Z,11.59
2018-12-08T06:21:03.673Z,9.60
2018-12-08T06:24:05.167Z,9.73
2018-12-08T06:27:07.285Z,8.89
2018-12-08T06:30:08.928Z,8.04
2018-12-08T06:33:10.363Z,7.49
2018-12-08T06:36:11.894Z,7.09
2018-12-08T06:39:13.223Z,6.84
2018-12-08T06:42:14.674Z,6.66
2018-12-08T06:45:16.199Z,6.51
2018-12-08T06:48:17.747Z,6.41
2018-12-08T06:51:19.276Z,6.31
2018-12-08T06:54:20.822Z,6.25
2018-12-08T06:57:22.364Z,6.15
2018-12-08T07:00:23.703Z,6.11
2018-12-08T07:03:25.229Z,6.11
2018-12-08T07:06:26.674Z,6.10
2018-12-08T07:09:28.325Z,6.10
2018-12-08T07:12:29.856Z,6.15
2018-12-08T07:15:31.393Z,6.15
2018-12-08T07:18:32.846Z,6.19
2018-12-08T07:55:12.177Z,6.71
2018-12-08T07:58:13.536Z,6.61
2018-12-08T08:01:14.944Z,6.58
2018-12-08T08:04:16.496Z,6.49
2018-12-08T08:07:17.936Z,6.52
2018-12-08T08:10:19.467Z,6.49
2018-12-08T08:13:20.798Z,6.48
2018-12-08T08:16:22.133Z,6.51
2018-12-08T08:19:23.568Z,6.51
2018-12-08T08:22:25.017Z,6.51
2018-12-08T08:25:26.454Z,6.59
2018-12-08T08:28:28.003Z,6.65
2018-12-08T08:31:29.443Z,6.66
2018-12-08T08:34:30.967Z,6.68
2018-12-08T08:37:32.406Z,6.68
2018-12-08T08:40:34.059Z,6.71
2018-12-08T08:43:35.496Z,6.73
2018-12-08T08:46:37.015Z,6.73
2018-12-08T08:49:39.698Z,6.67
2018-12-08T08:52:41.243Z,6.67
2018-12-08T08:55:42.877Z,6.69
2018-12-08T08:58:44.416Z,6.69
2018-12-08T09:01:45.852Z,6.73
2018-12-08T09:04:47.397Z,6.68
2018-12-08T09:07:48.934Z,6.69
2018-12-08T09:10:50.578Z,6.67
2018-12-08T09:13:52.011Z,6.65
2018-12-08T09:16:53.556Z,6.64
2018-12-08T09:19:55.094Z,6.65
2018-12-08T09:22:56.631Z,6.69
2018-12-08T09:25:58.159Z,6.77
2018-12-08T09:28:59.493Z,6.88
2018-12-08T09:32:00.947Z,6.97
2018-12-08T09:35:02.364Z,7.02
2018-12-08T09:38:03.816Z,7.12
2018-12-08T09:41:05.456Z,7.18
2018-12-08T09:44:07.387Z,7.28
2018-12-08T09:47:09.157Z,7.34
2018-12-08T09:50:10.885Z,7.35
2018-12-08T09:53:13.975Z,7.39
2018-12-08T09:56:15.389Z,7.40
2018-12-08T09:59:16.829Z,7.41
2018-12-08T10:02:18.276Z,7.38
2018-12-08T10:05:20.727Z,7.33
2018-12-08T10:08:22.176Z,7.27
2018-12-08T10:11:23.701Z,7.23
2018-12-08T10:14:25.242Z,7.19
2018-12-08T10:17:26.689Z,7.15
2018-12-08T10:20:28.234Z,7.09
2018-12-08T10:23:29.554Z,6.99
2018-12-08T10:26:31.107Z,6.95
2018-12-08T10:29:32.853Z,6.91
2018-12-08T10:32:34.387Z,6.95
2018-12-08T10:35:35.821Z,7.01
2018-12-08T10:38:37.377Z,7.05
2018-12-08T10:41:38.805Z,7.05
2018-12-08T10:44:40.356Z,7.09
2018-12-08T10:47:41.874Z,7.03
2018-12-08T10:50:43.215Z,7.09
2018-12-08T10:53:44.752Z,7.22
2018-12-08T10:56:47.213Z,7.37
2018-12-08T10:59:48.672Z,7.61
2018-12-08T11:02:52.130Z,8.22
2018-12-08T11:05:53.877Z,10.96
2018-12-08T11:08:55.307Z,12.58
2018-12-08T11:11:56.748Z,13.51
2018-12-08T11:15:00.810Z,13.72
2018-12-08T11:18:02.447Z,14.46
2018-12-08T11:21:04.039Z,14.71
2018-12-08T11:24:05.681Z,14.64
2018-12-08T11:27:07.229Z,14.79
2018-12-08T11:30:08.753Z,15.15
2018-12-08T11:33:10.403Z,15.61
2018-12-08T11:36:11.950Z,15.62
2018-12-08T11:39:13.578Z,16.07
2018-12-08T11:42:15.111Z,16.64
2018-12-08T11:45:16.668Z,17.13
2018-12-08T11:48:18.093Z,17.39
2018-12-08T11:51:19.632Z,17.47
2018-12-08T11:54:20.960Z,17.89
2018-12-08T11:57:22.513Z,18.34
2018-12-08T12:00:23.829Z,18.64
2018-12-08T12:03:25.283Z,18.30
2018-12-08T12:06:26.915Z,18.57
2018-12-08T12:09:28.466Z,18.63
2018-12-08T12:12:30.003Z,18.44
2018-12-08T12:15:31.539Z,18.55
2018-12-08T12:18:32.976Z,18.68
2018-12-08T12:21:34.517Z,18.68
2018-12-08T13:49:48.847Z,15.64
2018-12-08T13:52:51.287Z,11.67
2018-12-08T13:55:52.846Z,9.76
2018-12-08T13:58:54.161Z,8.82
2018-12-08T14:01:55.927Z,8.49
2018-12-08T14:04:57.467Z,9.03
2018-12-08T14:07:59.407Z,9.15
2018-12-08T14:11:00.847Z,8.71
2018-12-08T14:14:02.370Z,8.80
2018-12-08T14:17:03.909Z,8.64
2018-12-08T14:20:18.037Z,9.07
2018-12-08T14:23:19.575Z,8.42
2018-12-08T14:26:21.027Z,7.87
2018-12-08T14:29:22.561Z,7.51
2018-12-08T14:32:23.903Z,7.27
2018-12-08T14:35:25.530Z,7.05
2018-12-08T14:38:27.067Z,6.90
2018-12-08T14:41:28.625Z,6.75
2018-12-08T14:44:30.166Z,6.67
2018-12-08T14:47:31.693Z,6.53
2018-12-08T14:50:33.356Z,6.47
2018-12-08T14:53:34.875Z,6.37
2018-12-08T14:56:36.204Z,6.27
2018-12-08T14:59:37.754Z,6.24
2018-12-08T15:02:39.205Z,6.20
2018-12-08T15:05:40.639Z,6.13
2018-12-08T15:08:42.277Z,6.02
2018-12-08T15:11:43.898Z,5.98
2018-12-08T15:14:45.353Z,5.96
2018-12-08T15:17:46.806Z,5.95
2018-12-08T15:20:48.541Z,5.83
2018-12-08T15:23:49.958Z,5.81
2018-12-08T15:26:51.713Z,5.81
2018-12-08T15:29:53.258Z,5.78
2018-12-08T15:32:54.796Z,5.72
2018-12-08T15:35:56.529Z,5.73
2018-12-08T15:38:58.080Z,5.80
2018-12-08T15:41:59.714Z,5.87
2018-12-08T15:45:01.154Z,5.88
2018-12-08T15:48:02.688Z,5.92
2018-12-08T15:51:04.341Z,5.96
2018-12-08T15:54:05.884Z,5.94
2018-12-08T15:57:07.526Z,5.89
2018-12-08T16:00:11.514Z,5.89
2018-12-08T16:03:13.147Z,5.85
2018-12-08T16:06:14.802Z,5.93
2018-12-08T16:09:16.352Z,5.92
2018-12-08T16:12:17.861Z,5.95
2018-12-08T16:15:19.310Z,5.98
2018-12-08T16:18:20.964Z,5.98
2018-12-08T16:21:22.509Z,5.98
2018-12-08T16:24:24.450Z,6.01
2018-12-08T16:27:26.098Z,6.06
2018-12-08T16:30:27.621Z,6.07
2018-12-08T16:33:29.068Z,6.00
2018-12-08T16:36:30.697Z,5.94
2018-12-08T16:39:32.357Z,5.91
2018-12-08T16:42:33.782Z,5.91
2018-12-08T16:45:35.425Z,5.95
2018-12-08T16:48:36.850Z,5.95
2018-12-08T16:51:38.516Z,5.94
2018-12-08T16:54:39.953Z,5.95
2018-12-08T16:57:41.486Z,6.01
2018-12-08T17:00:43.118Z,6.02
2018-12-08T17:03:44.767Z,5.97
2018-12-08T17:06:46.303Z,5.89
2018-12-08T17:09:47.851Z,5.81
2018-12-08T17:12:50.111Z,5.67
2018-12-08T17:15:51.744Z,5.56
2018-12-08T17:18:53.292Z,5.44
2018-12-08T17:21:54.824Z,5.36
2018-12-08T17:24:56.367Z,5.29
2018-12-08T17:27:58.103Z,5.26
2018-12-08T17:30:59.558Z,5.19
2018-12-08T17:34:01.085Z,5.17
2018-12-08T17:37:02.722Z,5.13
2018-12-08T17:40:06.257Z,5.06
2018-12-08T17:43:07.956Z,5.01
2018-12-08T17:46:09.501Z,4.99
2018-12-08T17:49:11.043Z,5.00
2018-12-08T17:52:12.589Z,5.03
2018-12-08T17:55:14.315Z,5.01
2018-12-08T17:58:15.852Z,5.05
2018-12-08T18:01:17.504Z,5.09
2018-12-08T18:04:19.045Z,5.10
2018-12-08T18:07:20.581Z,5.12
2018-12-08T18:10:22.114Z,5.13
2018-12-08T18:13:23.557Z,5.11
2018-12-08T18:16:25.099Z,5.08
2018-12-08T18:19:26.627Z,5.11
2018-12-08T18:22:28.021Z,5.18
2018-12-08T18:25:29.803Z,5.16
2018-12-08T18:28:31.451Z,5.11
2018-12-08T18:31:33.106Z,5.11
2018-12-08T18:34:34.756Z,5.14
2018-12-08T18:37:37.299Z,5.21
2018-12-08T18:40:38.948Z,5.25
2018-12-08T18:43:40.474Z,5.28
2018-12-08T18:46:42.121Z,5.54
2018-12-08T18:49:43.567Z,5.89
2018-12-08T18:52:45.097Z,6.10
2018-12-08T18:55:46.522Z,6.04
2018-12-08T18:58:47.895Z,6.06
2018-12-08T19:01:49.722Z,6.05
2018-12-08T19:04:51.457Z,6.11
2018-12-08T19:07:53.110Z,6.16
2018-12-08T19:10:54.638Z,6.19
2018-12-08T19:13:56.075Z,6.18
2018-12-08T19:16:57.618Z,6.62
2018-12-08T19:19:59.051Z,6.35
2018-12-08T19:23:00.712Z,6.29
2018-12-08T19:26:03.244Z,6.16
2018-12-08T19:29:04.788Z,6.03
2018-12-08T19:32:06.529Z,5.98
2018-12-08T19:35:08.170Z,5.90
2018-12-08T19:38:10.129Z,5.91
2018-12-08T19:41:11.971Z,5.82
2018-12-08T19:44:14.439Z,5.69
2018-12-08T19:47:16.079Z,5.76
2018-12-08T19:50:17.520Z,5.71
2018-12-08T19:53:19.863Z,5.69
2018-12-08T19:56:21.309Z,5.68
2018-12-08T19:59:22.860Z,5.64
2018-12-08T20:02:24.587Z,5.71
2018-12-08T20:05:26.140Z,5.76
2018-12-08T20:08:27.580Z,5.83
2018-12-08T20:11:29.108Z,5.84
2018-12-08T20:14:30.543Z,5.93
2018-12-08T20:17:32.099Z,6.03
2018-12-08T20:20:33.640Z,6.05
2018-12-08T20:23:35.080Z,6.08
2018-12-08T20:26:36.593Z,6.10
2018-12-08T20:29:38.040Z,6.07
2018-12-08T20:32:39.673Z,6.08
2018-12-08T20:35:41.220Z,6.11
2018-12-08T20:38:42.757Z,6.05
2018-12-08T20:41:44.295Z,6.04
2018-12-08T20:44:45.836Z,6.05
2018-12-08T20:47:47.371Z,5.95
2018-12-08T20:50:49.034Z,5.93
2018-12-08T20:53:50.561Z,5.91
2018-12-08T20:56:51.999Z,5.83
2018-12-08T20:59:53.533Z,5.79
2018-12-08T21:02:54.965Z,5.75
2018-12-08T21:05:56.521Z,5.66
2018-12-08T21:08:57.959Z,5.58
2018-12-08T21:11:59.500Z,5.50
2018-12-08T21:15:00.931Z,5.48
2018-12-08T21:18:02.480Z,5.44
2018-12-08T21:21:04.120Z,5.41
2018-12-08T21:24:05.639Z,5.41
2018-12-08T21:27:07.199Z,5.48
2018-12-08T21:30:08.738Z,5.54
2018-12-08T21:33:10.176Z,5.65
2018-12-08T21:36:11.698Z,5.68
2018-12-08T21:39:13.146Z,5.74
2018-12-08T21:42:14.686Z,5.71
2018-12-08T21:45:16.125Z,5.67
2018-12-08T21:48:17.673Z,5.64
2018-12-08T21:51:19.106Z,5.60
2018-12-08T21:54:20.645Z,5.56
2018-12-08T21:57:22.174Z,5.54
2018-12-08T22:00:23.725Z,5.50
2018-12-08T22:03:25.264Z,5.46
2018-12-08T22:06:26.894Z,5.40
2018-12-08T22:09:28.328Z,5.39
2018-12-08T22:12:29.886Z,5.43
2018-12-08T22:15:31.410Z,5.40
2018-12-08T22:18:32.734Z,5.41
2018-12-08T22:21:34.509Z,5.46
2018-12-08T22:24:35.917Z,5.48
2018-12-08T22:27:37.476Z,5.47
2018-12-08T22:30:39.218Z,5.42
2018-12-08T22:33:40.748Z,5.39
2018-12-08T22:36:42.196Z,5.39
2018-12-08T22:39:43.738Z,5.34
2018-12-08T22:42:45.164Z,5.36
2018-12-08T22:45:46.591Z,5.39
2018-12-08T22:48:48.155Z,5.48
2018-12-08T22:51:49.685Z,5.57
2018-12-08T22:54:51.005Z,5.53
2018-12-08T22:57:53.363Z,5.40
2018-12-08T23:00:54.922Z,5.40
2018-12-08T23:03:56.456Z,5.32
2018-12-08T23:07:00.132Z,5.25
2018-12-08T23:10:01.573Z,5.19
2018-12-08T23:13:03.222Z,5.12
2018-12-08T23:16:04.857Z,5.24
2018-12-08T23:19:06.415Z,5.29
2018-12-08T23:22:07.949Z,5.32
2018-12-08T23:25:09.585Z,5.26
2018-12-08T23:28:11.128Z,5.27
2018-12-08T23:31:12.663Z,5.31
2018-12-08T23:34:14.415Z,5.29
2018-12-08T23:37:15.945Z,5.26
2018-12-08T23:40:17.685Z,5.20
2018-12-08T23:43:19.238Z,5.15
2018-12-08T23:46:20.766Z,5.07
2018-12-08T23:49:22.514Z,5.07
2018-12-08T23:52:24.156Z,4.98
2018-12-08T23:55:25.580Z,4.91
2018-12-08T23:58:27.034Z,4.91
